sensor_id;sensor_type;location;lat;lon;timestamp;pressure;altitude;pressure_sealevel;temperature;humidity
76866;BME280;66647;52.124;5.416;2023-03-19T00:02:04;101144.72;;;10.81;84.77
76866;BME280;66647;52.124;5.416;2023-03-19T00:04:44;101147.31;;;10.77;84.61
76866;BME280;66647;52.124;5.416;2023-03-19T00:07:12;101149.72;;;10.78;85.29
76866;BME280;66647;52.124;5.416;2023-03-19T00:09:39;101158.75;;;10.79;85.21
76866;BME280;66647;52.124;5.416;2023-03-19T00:12:06;101150.53;;;10.79;85.57
76866;BME280;66647;52.124;5.416;2023-03-19T00:14:33;101152.47;;;10.78;85.40
76866;BME280;66647;52.124;5.416;2023-03-19T00:17:03;101146.50;;;10.76;85.67
76866;BME280;66647;52.124;5.416;2023-03-19T00:19:29;101150.38;;;10.75;85.64
76866;BME280;66647;52.124;5.416;2023-03-19T00:21:56;101152.31;;;10.75;85.95
76866;BME280;66647;52.124;5.416;2023-03-19T00:24:24;101150.69;;;10.74;85.93
76866;BME280;66647;52.124;5.416;2023-03-19T00:26:50;101164.72;;;10.72;86.10
76866;BME280;66647;52.124;5.416;2023-03-19T00:29:17;101160.38;;;10.71;86.06
76866;BME280;66647;52.124;5.416;2023-03-19T00:31:44;101160.69;;;10.70;86.27
76866;BME280;66647;52.124;5.416;2023-03-19T00:34:10;101165.38;;;10.69;86.11
76866;BME280;66647;52.124;5.416;2023-03-19T00:36:38;101154.72;;;10.68;86.35
76866;BME280;66647;52.124;5.416;2023-03-19T00:39:05;101164.41;;;10.65;86.48
76866;BME280;66647;52.124;5.416;2023-03-19T00:41:33;101165.03;;;10.62;86.47
76866;BME280;66647;52.124;5.416;2023-03-19T00:44:00;101167.28;;;10.60;86.42
76866;BME280;66647;52.124;5.416;2023-03-19T00:46:28;101167.59;;;10.59;86.33
76866;BME280;66647;52.124;5.416;2023-03-19T00:48:55;101169.03;;;10.56;86.69
76866;BME280;66647;52.124;5.416;2023-03-19T00:51:24;101161.13;;;10.55;86.49
76866;BME280;66647;52.124;5.416;2023-03-19T00:53:51;101173.53;;;10.52;86.16
76866;BME280;66647;52.124;5.416;2023-03-19T00:56:19;101169.50;;;10.50;86.62
76866;BME280;66647;52.124;5.416;2023-03-19T00:58:46;101165.75;;;10.46;87.02
76866;BME280;66647;52.124;5.416;2023-03-19T01:01:15;101159.31;;;10.41;86.46
76866;BME280;66647;52.124;5.416;2023-03-19T01:03:44;101164.63;;;10.38;86.42
76866;BME280;66647;52.124;5.416;2023-03-19T01:06:12;101173.00;;;10.33;86.48
76866;BME280;66647;52.124;5.416;2023-03-19T01:08:39;101163.78;;;10.29;86.63
76866;BME280;66647;52.124;5.416;2023-03-19T01:11:15;101173.25;;;10.23;86.63
76866;BME280;66647;52.124;5.416;2023-03-19T01:13:45;101176.09;;;10.18;86.77
76866;BME280;66647;52.124;5.416;2023-03-19T01:16:12;101173.50;;;10.13;86.79
76866;BME280;66647;52.124;5.416;2023-03-19T01:18:38;101179.59;;;10.09;87.01
76866;BME280;66647;52.124;5.416;2023-03-19T01:21:06;101178.63;;;10.05;87.14
76866;BME280;66647;52.124;5.416;2023-03-19T01:23:38;101169.44;;;10.01;87.30
76866;BME280;66647;52.124;5.416;2023-03-19T01:26:05;101174.41;;;9.99;87.34
76866;BME280;66647;52.124;5.416;2023-03-19T01:28:32;101165.19;;;9.95;87.36
76866;BME280;66647;52.124;5.416;2023-03-19T01:31:00;101167.44;;;9.93;87.46
76866;BME280;66647;52.124;5.416;2023-03-19T01:33:47;101162.09;;;9.88;87.52
76866;BME280;66647;52.124;5.416;2023-03-19T01:36:30;101173.66;;;9.85;87.70
76866;BME280;66647;52.124;5.416;2023-03-19T01:39:01;101179.16;;;9.85;87.76
76866;BME280;66647;52.124;5.416;2023-03-19T01:41:28;101175.78;;;9.88;87.81
76866;BME280;66647;52.124;5.416;2023-03-19T01:44:02;101171.59;;;9.91;87.94
76866;BME280;66647;52.124;5.416;2023-03-19T01:46:39;101178.91;;;9.95;87.63
76866;BME280;66647;52.124;5.416;2023-03-19T01:49:26;101168.75;;;9.96;87.63
76866;BME280;66647;52.124;5.416;2023-03-19T01:52:09;101167.31;;;9.98;87.61
76866;BME280;66647;52.124;5.416;2023-03-19T01:55:06;101171.66;;;9.99;87.83
76866;BME280;66647;52.124;5.416;2023-03-19T01:57:53;101172.78;;;9.98;87.69
76866;BME280;66647;52.124;5.416;2023-03-19T02:00:20;101179.88;;;9.99;87.66
76866;BME280;66647;52.124;5.416;2023-03-19T02:02:50;101167.00;;;10.00;87.75
76866;BME280;66647;52.124;5.416;2023-03-19T02:05:38;101178.28;;;9.98;87.99
76866;BME280;66647;52.124;5.416;2023-03-19T02:08:11;101179.88;;;9.99;87.97
76866;BME280;66647;52.124;5.416;2023-03-19T02:10:45;101177.16;;;9.99;87.76
76866;BME280;66647;52.124;5.416;2023-03-19T02:13:13;101181.50;;;10.00;88.10
76866;BME280;66647;52.124;5.416;2023-03-19T02:15:39;101184.56;;;9.99;88.16
76866;BME280;66647;52.124;5.416;2023-03-19T02:18:07;101178.75;;;10.00;88.16
76866;BME280;66647;52.124;5.416;2023-03-19T02:21:04;101181.50;;;10.00;88.03
76866;BME280;66647;52.124;5.416;2023-03-19T02:24:00;101182.00;;;10.02;87.96
76866;BME280;66647;52.124;5.416;2023-03-19T02:26:59;101180.69;;;10.00;88.31
76866;BME280;66647;52.124;5.416;2023-03-19T02:29:27;101185.38;;;9.99;88.30
76866;BME280;66647;52.124;5.416;2023-03-19T02:31:57;101179.88;;;9.99;88.36
76866;BME280;66647;52.124;5.416;2023-03-19T02:36:54;101174.66;;;9.89;88.27
76866;BME280;66647;52.124;5.416;2023-03-19T02:41:56;101178.47;;;9.80;88.71
76866;BME280;66647;52.124;5.416;2023-03-19T02:44:25;101182.00;;;9.80;88.20
76866;BME280;66647;52.124;5.416;2023-03-19T02:46:52;101189.72;;;9.78;88.34
76866;BME280;66647;52.124;5.416;2023-03-19T02:49:19;101187.59;;;9.75;88.57
76866;BME280;66647;52.124;5.416;2023-03-19T02:51:45;101181.66;;;9.73;88.70
76866;BME280;66647;52.124;5.416;2023-03-19T02:54:12;101189.56;;;9.74;88.78
76866;BME280;66647;52.124;5.416;2023-03-19T02:56:40;101190.34;;;9.75;88.83
76866;BME280;66647;52.124;5.416;2023-03-19T02:59:07;101191.16;;;9.75;88.75
76866;BME280;66647;52.124;5.416;2023-03-19T03:01:34;101191.97;;;9.76;89.06
76866;BME280;66647;52.124;5.416;2023-03-19T03:04:02;101196.31;;;9.77;88.94
76866;BME280;66647;52.124;5.416;2023-03-19T03:06:33;101199.56;;;9.79;88.67
76866;BME280;66647;52.124;5.416;2023-03-19T03:09:02;101196.00;;;9.78;88.66
76866;BME280;66647;52.124;5.416;2023-03-19T03:11:29;101202.09;;;9.75;89.30
76866;BME280;66647;52.124;5.416;2023-03-19T03:13:55;101196.31;;;9.77;88.95
76866;BME280;66647;52.124;5.416;2023-03-19T03:16:24;101191.97;;;9.76;88.88
76866;BME280;66647;52.124;5.416;2023-03-19T03:18:51;101192.63;;;9.73;89.25
76866;BME280;66647;52.124;5.416;2023-03-19T03:21:17;101195.47;;;9.68;89.20
76866;BME280;66647;52.124;5.416;2023-03-19T03:23:47;101196.09;;;9.65;89.22
76866;BME280;66647;52.124;5.416;2023-03-19T03:26:13;101205.31;;;9.69;89.58
76866;BME280;66647;52.124;5.416;2023-03-19T03:28:40;101208.03;;;9.69;89.50
76866;BME280;66647;52.124;5.416;2023-03-19T03:31:07;101201.44;;;9.70;89.39
76866;BME280;66647;52.124;5.416;2023-03-19T03:33:34;101202.56;;;9.69;89.62
76866;BME280;66647;52.124;5.416;2023-03-19T03:36:02;101198.53;;;9.66;89.29
76866;BME280;66647;52.124;5.416;2023-03-19T03:38:28;101206.53;;;9.63;88.99
76866;BME280;66647;52.124;5.416;2023-03-19T03:40:55;101202.00;;;9.58;89.32
76866;BME280;66647;52.124;5.416;2023-03-19T03:43:24;101206.16;;;9.56;89.37
76866;BME280;66647;52.124;5.416;2023-03-19T03:45:51;101202.59;;;9.55;89.75
76866;BME280;66647;52.124;5.416;2023-03-19T03:48:19;101209.72;;;9.56;89.85
76866;BME280;66647;52.124;5.416;2023-03-19T03:50:45;101205.03;;;9.57;89.69
76866;BME280;66647;52.124;5.416;2023-03-19T03:53:15;101208.09;;;9.55;89.45
76866;BME280;66647;52.124;5.416;2023-03-19T03:55:42;101207.69;;;9.48;89.74
76866;BME280;66647;52.124;5.416;2023-03-19T03:58:09;101201.88;;;9.41;89.67
76866;BME280;66647;52.124;5.416;2023-03-19T04:00:36;101207.47;;;9.36;90.14
76866;BME280;66647;52.124;5.416;2023-03-19T04:03:02;101209.19;;;9.32;89.92
76866;BME280;66647;52.124;5.416;2023-03-19T04:05:29;101207.06;;;9.29;89.98
76866;BME280;66647;52.124;5.416;2023-03-19T04:07:56;101205.75;;;9.26;90.21
76866;BME280;66647;52.124;5.416;2023-03-19T04:10:23;101195.13;;;9.25;90.48
76866;BME280;66647;52.124;5.416;2023-03-19T04:12:50;101194.91;;;9.21;90.28
76866;BME280;66647;52.124;5.416;2023-03-19T04:15:16;101199.06;;;9.19;90.51
76866;BME280;66647;52.124;5.416;2023-03-19T04:17:45;101202.22;;;9.12;90.33
76866;BME280;66647;52.124;5.416;2023-03-19T04:20:13;101200.44;;;9.07;91.00
76866;BME280;66647;52.124;5.416;2023-03-19T04:22:45;101202.66;;;9.05;90.73
76866;BME280;66647;52.124;5.416;2023-03-19T04:25:12;101204.38;;;9.01;90.95
76866;BME280;66647;52.124;5.416;2023-03-19T04:27:39;101208.84;;;8.97;91.15
76866;BME280;66647;52.124;5.416;2023-03-19T04:30:07;101203.47;;;8.92;90.51
76866;BME280;66647;52.124;5.416;2023-03-19T04:32:35;101209.88;;;8.88;90.70
76866;BME280;66647;52.124;5.416;2023-03-19T04:35:02;101207.22;;;8.83;90.24
76866;BME280;66647;52.124;5.416;2023-03-19T04:37:29;101204.59;;;8.77;90.09
76866;BME280;66647;52.124;5.416;2023-03-19T04:39:56;101209.91;;;8.74;90.76
76866;BME280;66647;52.124;5.416;2023-03-19T04:42:24;101210.28;;;8.67;90.87
76866;BME280;66647;52.124;5.416;2023-03-19T04:45:02;101218.59;;;8.62;91.10
76866;BME280;66647;52.124;5.416;2023-03-19T04:47:29;101218.38;;;8.59;91.03
76866;BME280;66647;52.124;5.416;2023-03-19T04:49:58;101215.44;;;8.55;90.52
76866;BME280;66647;52.124;5.416;2023-03-19T04:52:26;101208.97;;;8.51;90.74
76866;BME280;66647;52.124;5.416;2023-03-19T04:54:53;101202.19;;;8.49;91.04
76866;BME280;66647;52.124;5.416;2023-03-19T04:57:20;101207.44;;;8.45;91.12
76866;BME280;66647;52.124;5.416;2023-03-19T04:59:50;101212.41;;;8.43;90.89
76866;BME280;66647;52.124;5.416;2023-03-19T05:02:18;101214.94;;;8.39;90.44
76866;BME280;66647;52.124;5.416;2023-03-19T05:04:45;101218.28;;;8.36;90.48
76866;BME280;66647;52.124;5.416;2023-03-19T05:07:13;101224.34;;;8.33;91.00
76866;BME280;66647;52.124;5.416;2023-03-19T05:09:40;101231.19;;;8.31;90.54
76866;BME280;66647;52.124;5.416;2023-03-19T05:12:10;101239.38;;;8.31;91.10
76866;BME280;66647;52.124;5.416;2023-03-19T05:14:42;101243.81;;;8.27;90.59
76866;BME280;66647;52.124;5.416;2023-03-19T05:17:15;101242.78;;;8.23;90.30
76866;BME280;66647;52.124;5.416;2023-03-19T05:20:01;101244.50;;;8.19;91.27
76866;BME280;66647;52.124;5.416;2023-03-19T05:22:31;101251.66;;;8.15;90.43
76866;BME280;66647;52.124;5.416;2023-03-19T05:24:58;101252.78;;;8.14;90.99
76866;BME280;66647;52.124;5.416;2023-03-19T05:27:26;101247.94;;;8.11;90.95
76866;BME280;66647;52.124;5.416;2023-03-19T05:30:15;101248.53;;;8.07;90.56
76866;BME280;66647;52.124;5.416;2023-03-19T05:33:06;101252.38;;;8.06;90.44
76866;BME280;66647;52.124;5.416;2023-03-19T05:35:39;101249.13;;;8.04;89.94
76866;BME280;66647;52.124;5.416;2023-03-19T05:38:14;101253.88;;;7.99;90.66
76866;BME280;66647;52.124;5.416;2023-03-19T05:40:45;101263.16;;;7.98;90.27
76866;BME280;66647;52.124;5.416;2023-03-19T05:43:22;101259.91;;;7.96;90.88
76866;BME280;66647;52.124;5.416;2023-03-19T05:45:50;101267.59;;;7.94;90.56
76866;BME280;66647;52.124;5.416;2023-03-19T05:48:25;101269.59;;;7.88;90.95
76866;BME280;66647;52.124;5.416;2023-03-19T05:50:53;101276.69;;;7.89;90.13
76866;BME280;66647;52.124;5.416;2023-03-19T05:53:21;101277.84;;;7.83;90.09
76866;BME280;66647;52.124;5.416;2023-03-19T05:56:09;101278.97;;;7.82;90.03
76866;BME280;66647;52.124;5.416;2023-03-19T05:58:47;101283.63;;;7.82;90.42
76866;BME280;66647;52.124;5.416;2023-03-19T06:01:19;101280.06;;;7.81;90.86
76866;BME280;66647;52.124;5.416;2023-03-19T06:03:46;101284.13;;;7.84;91.74
76866;BME280;66647;52.124;5.416;2023-03-19T06:06:14;101290.69;;;7.83;91.41
76866;BME280;66647;52.124;5.416;2023-03-19T06:08:43;101295.06;;;7.84;91.82
76866;BME280;66647;52.124;5.416;2023-03-19T06:11:16;101287.38;;;7.86;91.46
76866;BME280;66647;52.124;5.416;2023-03-19T06:13:48;101294.47;;;7.87;91.72
76866;BME280;66647;52.124;5.416;2023-03-19T06:16:16;101292.25;;;7.89;91.17
76866;BME280;66647;52.124;5.416;2023-03-19T06:18:49;101298.44;;;7.94;91.36
76866;BME280;66647;52.124;5.416;2023-03-19T06:21:17;101299.47;;;7.98;91.63
76866;BME280;66647;52.124;5.416;2023-03-19T06:23:44;101305.69;;;8.04;91.29
76866;BME280;66647;52.124;5.416;2023-03-19T06:26:16;101315.19;;;8.06;90.83
76866;BME280;66647;52.124;5.416;2023-03-19T06:28:53;101316.38;;;8.00;91.58
76866;BME280;66647;52.124;5.416;2023-03-19T06:31:20;101317.78;;;7.98;91.24
76866;BME280;66647;52.124;5.416;2023-03-19T06:33:59;101317.50;;;7.99;91.00
76866;BME280;66647;52.124;5.416;2023-03-19T06:36:35;101312.75;;;8.05;91.96
76866;BME280;66647;52.124;5.416;2023-03-19T06:39:02;101322.78;;;8.09;91.77
76866;BME280;66647;52.124;5.416;2023-03-19T06:41:29;101321.06;;;8.14;91.49
76866;BME280;66647;52.124;5.416;2023-03-19T06:44:05;101326.97;;;8.21;91.06
76866;BME280;66647;52.124;5.416;2023-03-19T06:46:32;101323.34;;;8.25;91.23
76866;BME280;66647;52.124;5.416;2023-03-19T06:48:58;101322.97;;;8.32;91.46
76866;BME280;66647;52.124;5.416;2023-03-19T06:51:25;101326.47;;;8.37;91.61
76866;BME280;66647;52.124;5.416;2023-03-19T06:53:53;101330.75;;;8.44;90.69
76866;BME280;66647;52.124;5.416;2023-03-19T06:56:20;101333.13;;;8.45;90.90
76866;BME280;66647;52.124;5.416;2023-03-19T06:58:46;101334.69;;;8.51;91.14
76866;BME280;66647;52.124;5.416;2023-03-19T07:01:13;101328.31;;;8.56;90.98
76866;BME280;66647;52.124;5.416;2023-03-19T07:03:40;101335.63;;;8.60;91.13
76866;BME280;66647;52.124;5.416;2023-03-19T07:06:06;101338.47;;;8.69;91.11
76866;BME280;66647;52.124;5.416;2023-03-19T07:08:33;101345.56;;;8.70;90.46
76866;BME280;66647;52.124;5.416;2023-03-19T07:11:04;101346.59;;;8.74;90.42
76866;BME280;66647;52.124;5.416;2023-03-19T07:13:31;101349.03;;;8.75;90.25
76866;BME280;66647;52.124;5.416;2023-03-19T07:15:58;101359.97;;;8.75;90.83
76866;BME280;66647;52.124;5.416;2023-03-19T07:18:25;101364.00;;;8.78;90.69
76866;BME280;66647;52.124;5.416;2023-03-19T07:20:52;101361.25;;;8.78;90.51
76866;BME280;66647;52.124;5.416;2023-03-19T07:23:19;101364.00;;;8.78;90.33
76866;BME280;66647;52.124;5.416;2023-03-19T07:25:45;101373.13;;;8.73;90.15
76866;BME280;66647;52.124;5.416;2023-03-19T07:28:13;101373.94;;;8.74;91.17
76866;BME280;66647;52.124;5.416;2023-03-19T07:30:39;101385.06;;;8.77;90.44
76866;BME280;66647;52.124;5.416;2023-03-19T07:33:06;101384.06;;;8.73;90.03
76866;BME280;66647;52.124;5.416;2023-03-19T07:35:33;101388.28;;;8.66;90.10
76866;BME280;66647;52.124;5.416;2023-03-19T07:38:03;101384.75;;;8.65;90.76
76866;BME280;66647;52.124;5.416;2023-03-19T07:40:30;101397.38;;;8.61;90.47
76866;BME280;66647;52.124;5.416;2023-03-19T07:42:56;101397.16;;;8.58;90.84
76866;BME280;66647;52.124;5.416;2023-03-19T07:45:23;101405.06;;;8.59;90.74
76866;BME280;66647;52.124;5.416;2023-03-19T07:47:52;101405.06;;;8.59;90.74
76866;BME280;66647;52.124;5.416;2023-03-19T07:50:19;101409.44;;;8.60;90.84
76866;BME280;66647;52.124;5.416;2023-03-19T07:52:46;101412.16;;;8.60;90.54
76866;BME280;66647;52.124;5.416;2023-03-19T07:55:14;101415.13;;;8.64;90.53
76866;BME280;66647;52.124;5.416;2023-03-19T07:57:41;101416.44;;;8.66;90.21
76866;BME280;66647;52.124;5.416;2023-03-19T08:00:08;101423.53;;;8.67;90.67
76866;BME280;66647;52.124;5.416;2023-03-19T08:02:38;101423.53;;;8.67;90.70
76866;BME280;66647;52.124;5.416;2023-03-19T08:05:06;101430.63;;;8.68;90.88
76866;BME280;66647;52.124;5.416;2023-03-19T08:07:33;101428.41;;;8.70;90.21
76866;BME280;66647;52.124;5.416;2023-03-19T08:10:10;101419.69;;;8.68;90.93
76866;BME280;66647;52.124;5.416;2023-03-19T08:12:37;101426.41;;;8.76;89.68
76866;BME280;66647;52.124;5.416;2023-03-19T08:15:08;101423.19;;;8.88;89.74
76866;BME280;66647;52.124;5.416;2023-03-19T08:17:35;101417.84;;;8.96;89.36
76866;BME280;66647;52.124;5.416;2023-03-19T08:20:14;101419.47;;;9.11;89.04
76866;BME280;66647;52.124;5.416;2023-03-19T08:22:42;101433.28;;;9.33;88.70
76866;BME280;66647;52.124;5.416;2023-03-19T08:25:09;101432.38;;;9.52;87.98
76866;BME280;66647;52.124;5.416;2023-03-19T08:27:36;101430.06;;;9.59;87.27
76866;BME280;66647;52.124;5.416;2023-03-19T08:30:04;101434.63;;;9.63;87.77
76866;BME280;66647;52.124;5.416;2023-03-19T08:32:31;101439.69;;;9.70;87.59
76866;BME280;66647;52.124;5.416;2023-03-19T08:34:58;101435.59;;;9.81;87.21
76866;BME280;66647;52.124;5.416;2023-03-19T08:37:24;101444.53;;;9.87;86.27
76866;BME280;66647;52.124;5.416;2023-03-19T08:39:53;101439.75;;;9.92;86.73
76866;BME280;66647;52.124;5.416;2023-03-19T08:42:20;101449.00;;;9.96;86.20
76866;BME280;66647;52.124;5.416;2023-03-19T08:44:48;101451.22;;;9.94;85.89
76866;BME280;66647;52.124;5.416;2023-03-19T08:47:15;101457.31;;;9.91;85.50
76866;BME280;66647;52.124;5.416;2023-03-19T08:49:42;101456.28;;;9.87;86.06
76866;BME280;66647;52.124;5.416;2023-03-19T08:52:08;101464.50;;;9.87;86.29
76866;BME280;66647;52.124;5.416;2023-03-19T08:54:35;101463.19;;;9.85;86.02
76866;BME280;66647;52.124;5.416;2023-03-19T08:57:02;101459.75;;;9.79;85.71
76866;BME280;66647;52.124;5.416;2023-03-19T08:59:28;101467.66;;;9.94;85.79
76866;BME280;66647;52.124;5.416;2023-03-19T09:01:59;101465.81;;;10.03;85.33
76866;BME280;66647;52.124;5.416;2023-03-19T09:04:25;101462.47;;;10.06;84.87
76866;BME280;66647;52.124;5.416;2023-03-19T09:06:52;101464.78;;;10.13;84.30
76866;BME280;66647;52.124;5.416;2023-03-19T09:09:20;101460.22;;;10.22;84.71
76866;BME280;66647;52.124;5.416;2023-03-19T09:11:47;101463.56;;;10.33;83.98
76866;BME280;66647;52.124;5.416;2023-03-19T09:14:15;101466.22;;;10.60;82.86
76866;BME280;66647;52.124;5.416;2023-03-19T09:16:52;101471.81;;;10.77;82.84
76866;BME280;66647;52.124;5.416;2023-03-19T09:19:21;101472.94;;;10.76;82.43
76866;BME280;66647;52.124;5.416;2023-03-19T09:22:01;101483.91;;;10.76;82.54
76866;BME280;66647;52.124;5.416;2023-03-19T09:24:28;101476.44;;;10.68;82.73
76866;BME280;66647;52.124;5.416;2023-03-19T09:26:54;101490.47;;;10.67;81.52
76866;BME280;66647;52.124;5.416;2023-03-19T09:29:21;101483.84;;;10.68;82.46
76866;BME280;66647;52.124;5.416;2023-03-19T09:31:49;101488.84;;;10.66;82.93
76866;BME280;66647;52.124;5.416;2023-03-19T09:34:21;101482.78;;;10.77;82.11
76866;BME280;66647;52.124;5.416;2023-03-19T09:36:48;101486.53;;;10.82;82.74
76866;BME280;66647;52.124;5.416;2023-03-19T09:39:15;101489.97;;;10.87;81.91
76866;BME280;66647;52.124;5.416;2023-03-19T09:41:53;101500.31;;;10.90;81.52
76866;BME280;66647;52.124;5.416;2023-03-19T09:44:30;101497.69;;;10.85;81.06
76866;BME280;66647;52.124;5.416;2023-03-19T09:47:38;101507.34;;;10.83;82.23
76866;BME280;66647;52.124;5.416;2023-03-19T09:50:11;101505.72;;;10.82;81.84
76866;BME280;66647;52.124;5.416;2023-03-19T09:52:47;101514.97;;;10.86;82.08
76866;BME280;66647;52.124;5.416;2023-03-19T09:57:55;101522.94;;;10.73;81.85
76866;BME280;66647;52.124;5.416;2023-03-19T10:00:28;101529.69;;;10.67;82.55
76866;BME280;66647;52.124;5.416;2023-03-19T10:03:37;101532.84;;;10.61;82.59
76866;BME280;66647;52.124;5.416;2023-03-19T10:12:12;101540.25;;;10.60;83.12
76866;BME280;66647;52.124;5.416;2023-03-19T10:15:18;101547.34;;;10.61;82.44
76866;BME280;66647;52.124;5.416;2023-03-19T10:18:04;101543.31;;;10.45;83.02
76866;BME280;66647;52.124;5.416;2023-03-19T10:20:37;101538.66;;;10.46;83.18
76866;BME280;66647;52.124;5.416;2023-03-19T10:23:36;101542.59;;;10.53;83.12
76866;BME280;66647;52.124;5.416;2023-03-19T10:26:11;101549.41;;;10.56;82.45
76866;BME280;66647;52.124;5.416;2023-03-19T10:28:43;101550.31;;;10.65;82.71
76866;BME280;66647;52.124;5.416;2023-03-19T10:31:28;101553.84;;;10.65;82.64
76866;BME280;66647;52.124;5.416;2023-03-19T10:34:32;101546.00;;;10.72;82.77
76866;BME280;66647;52.124;5.416;2023-03-19T10:39:35;101542.00;;;10.78;82.57
76866;BME280;66647;52.124;5.416;2023-03-19T10:44:50;101550.91;;;10.98;82.06
76866;BME280;66647;52.124;5.416;2023-03-19T10:47:24;101540.63;;;11.03;81.54
76866;BME280;66647;52.124;5.416;2023-03-19T10:49:51;101550.81;;;11.11;81.12
76866;BME280;66647;52.124;5.416;2023-03-19T10:52:36;101552.72;;;11.02;81.10
76866;BME280;66647;52.124;5.416;2023-03-19T10:57:42;101559.50;;;11.05;81.42
76866;BME280;66647;52.124;5.416;2023-03-19T11:00:18;101563.38;;;11.04;81.13
76866;BME280;66647;52.124;5.416;2023-03-19T11:02:53;101562.19;;;10.96;81.63
76866;BME280;66647;52.124;5.416;2023-03-19T11:05:26;101563.19;;;11.00;81.63
76866;BME280;66647;52.124;5.416;2023-03-19T11:08:02;101575.59;;;10.98;81.24
76866;BME280;66647;52.124;5.416;2023-03-19T11:10:31;101582.72;;;10.99;82.33
76866;BME280;66647;52.124;5.416;2023-03-19T11:15:34;101600.28;;;10.98;82.00
76866;BME280;66647;52.124;5.416;2023-03-19T11:18:21;101592.78;;;10.90;81.92
76866;BME280;66647;52.124;5.416;2023-03-19T11:20:54;101590.66;;;10.87;82.09
76866;BME280;66647;52.124;5.416;2023-03-19T11:23:21;101590.16;;;10.85;81.70
76866;BME280;66647;52.124;5.416;2023-03-19T11:25:52;101587.03;;;10.77;81.94
76866;BME280;66647;52.124;5.416;2023-03-19T11:28:22;101590.78;;;10.82;81.43
76866;BME280;66647;52.124;5.416;2023-03-19T11:30:59;101591.91;;;10.81;81.46
76866;BME280;66647;52.124;5.416;2023-03-19T11:34:14;101595.75;;;10.80;81.19
76866;BME280;66647;52.124;5.416;2023-03-19T11:47:49;101594.34;;;10.82;81.94
76866;BME280;66647;52.124;5.416;2023-03-19T11:50:26;101595.75;;;10.80;81.74
76866;BME280;66647;52.124;5.416;2023-03-19T11:53:05;101595.66;;;10.85;81.93
76866;BME280;66647;52.124;5.416;2023-03-19T11:55:41;101597.06;;;10.82;80.87
76866;BME280;66647;52.124;5.416;2023-03-19T11:58:38;101600.53;;;10.88;81.23
76866;BME280;66647;52.124;5.416;2023-03-19T12:11:52;101605.59;;;10.94;82.16
76866;BME280;66647;52.124;5.416;2023-03-19T12:23:41;101596.44;;;10.99;82.32
76866;BME280;66647;52.124;5.416;2023-03-19T12:29:12;101589.63;;;11.19;81.11
76866;BME280;66647;52.124;5.416;2023-03-19T12:32:09;101588.31;;;11.38;80.33
76866;BME280;66647;52.124;5.416;2023-03-19T12:34:43;101590.50;;;11.50;80.16
76866;BME280;66647;52.124;5.416;2023-03-19T12:37:32;101585.38;;;11.57;79.99
76866;BME280;66647;52.124;5.416;2023-03-19T12:42:48;101611.13;;;11.70;79.22
76866;BME280;66647;52.124;5.416;2023-03-19T12:45:25;101614.53;;;11.67;78.42
76866;BME280;66647;52.124;5.416;2023-03-19T12:47:57;101613.72;;;11.66;78.70
76866;BME280;66647;52.124;5.416;2023-03-19T12:50:29;101612.34;;;11.77;78.60
76866;BME280;66647;52.124;5.416;2023-03-19T12:52:59;101613.88;;;11.92;78.69
76866;BME280;66647;52.124;5.416;2023-03-19T12:55:38;101619.81;;;12.17;78.42
76866;BME280;66647;52.124;5.416;2023-03-19T12:58:32;101617.94;;;12.34;76.91
76866;BME280;66647;52.124;5.416;2023-03-19T13:01:12;101619.88;;;12.34;77.18
76866;BME280;66647;52.124;5.416;2023-03-19T13:03:58;101618.25;;;12.41;76.41
76866;BME280;66647;52.124;5.416;2023-03-19T13:06:36;101617.44;;;12.41;76.16
76866;BME280;66647;52.124;5.416;2023-03-19T13:09:51;101625.06;;;12.44;77.12
76866;BME280;66647;52.124;5.416;2023-03-19T13:12:26;101620.09;;;12.55;75.90
76866;BME280;66647;52.124;5.416;2023-03-19T13:23:24;101627.72;;;12.66;75.96
76866;BME280;66647;52.124;5.416;2023-03-19T13:25:54;101622.53;;;12.73;75.82
76866;BME280;66647;52.124;5.416;2023-03-19T13:28:33;101619.78;;;12.73;75.23
76866;BME280;66647;52.124;5.416;2023-03-19T13:31:04;101622.25;;;12.84;74.88
76866;BME280;66647;52.124;5.416;2023-03-19T13:33:35;101617.25;;;12.94;74.14
76866;BME280;66647;52.124;5.416;2023-03-19T13:36:11;101615.78;;;12.97;74.21
76866;BME280;66647;52.124;5.416;2023-03-19T13:38:43;101621.59;;;13.04;73.79
76866;BME280;66647;52.124;5.416;2023-03-19T13:46:45;101628.94;;;13.17;72.95
76866;BME280;66647;52.124;5.416;2023-03-19T13:51:47;101634.44;;;13.26;73.80
76866;BME280;66647;52.124;5.416;2023-03-19T13:54:16;101634.09;;;13.36;72.96
76866;BME280;66647;52.124;5.416;2023-03-19T13:59:28;101627.78;;;13.35;71.43
76866;BME280;66647;52.124;5.416;2023-03-19T14:01:55;101624.09;;;13.31;71.14
76866;BME280;66647;52.124;5.416;2023-03-19T14:04:32;101627.44;;;13.45;72.58
76866;BME280;66647;52.124;5.416;2023-03-19T14:07:18;101623.38;;;13.60;72.67
76866;BME280;66647;52.124;5.416;2023-03-19T14:12:36;101613.19;;;13.52;71.04
76866;BME280;66647;52.124;5.416;2023-03-19T14:15:15;101613.19;;;13.43;71.62
76866;BME280;66647;52.124;5.416;2023-03-19T14:20:28;101623.41;;;13.52;71.23
76866;BME280;66647;52.124;5.416;2023-03-19T14:28:22;101628.78;;;13.22;71.57
76866;BME280;66647;52.124;5.416;2023-03-19T14:30:49;101636.72;;;13.24;72.38
76866;BME280;66647;52.124;5.416;2023-03-19T14:33:42;101643.53;;;13.26;71.38
76866;BME280;66647;52.124;5.416;2023-03-19T14:36:18;101645.44;;;13.34;72.01
76866;BME280;66647;52.124;5.416;2023-03-19T14:38:53;101647.72;;;13.32;71.59
76866;BME280;66647;52.124;5.416;2023-03-19T14:41:25;101644.66;;;13.25;71.29
76866;BME280;66647;52.124;5.416;2023-03-19T14:46:44;101641.22;;;13.11;70.93
76866;BME280;66647;52.124;5.416;2023-03-19T14:52:24;101649.97;;;13.13;71.97
76866;BME280;66647;52.124;5.416;2023-03-19T14:55:01;101652.72;;;13.13;72.37
76866;BME280;66647;52.124;5.416;2023-03-19T14:57:31;101647.84;;;13.10;72.08